createdAt,value
2023-03-27T00:02:14.861Z,96133.63
2023-03-27T00:04:42.398Z,96134.75
2023-03-27T00:07:10.125Z,96141.09
2023-03-27T00:09:39.109Z,96144.22
2023-03-27T00:12:07.083Z,96148.31
2023-03-27T00:14:34.618Z,96156.72
2023-03-27T00:17:02.719Z,96154.97
2023-03-27T00:19:33.868Z,96159.59
2023-03-27T00:22:01.386Z,96162.91
2023-03-27T00:24:28.902Z,96164.03
2023-03-27T00:26:56.390Z,96170.75
2023-03-27T00:29:23.945Z,96171.56
2023-03-27T00:31:51.598Z,96171.31
2023-03-27T00:34:19.109Z,96171.44
2023-03-27T00:36:51.141Z,96186.72
2023-03-27T00:39:19.196Z,96177.63
2023-03-27T00:41:47.366Z,96186.56
2023-03-27T00:44:25.068Z,96194.34
2023-03-27T00:46:54.654Z,96205.00
2023-03-27T00:49:23.529Z,96205.88
2023-03-27T00:51:53.537Z,96203.03
2023-03-27T00:54:26.401Z,96215.91
2023-03-27T00:56:55.430Z,96222.69
2023-03-27T00:59:24.562Z,96224.69
2023-03-27T01:01:53.410Z,96235.91
2023-03-27T01:04:22.761Z,96244.25
2023-03-27T01:06:53.654Z,96239.53
2023-03-27T01:09:21.502Z,96243.13
2023-03-27T01:12:12.603Z,96247.41
2023-03-27T01:14:42.200Z,96254.50
2023-03-27T01:17:23.021Z,96260.28
2023-03-27T01:20:18.059Z,96251.91
2023-03-27T01:23:35.823Z,96264.66
2023-03-27T01:26:35.573Z,96270.34
2023-03-27T01:29:08.736Z,96275.91
2023-03-27T01:31:46.337Z,96278.31
2023-03-27T01:34:48.343Z,96286.44
2023-03-27T01:37:50.314Z,96300.88
2023-03-27T01:40:19.810Z,96297.63
2023-03-27T01:42:49.278Z,96303.66
2023-03-27T01:45:19.868Z,96300.84
2023-03-27T01:47:54.047Z,96308.94
2023-03-27T01:50:27.817Z,96323.59
2023-03-27T01:52:59.748Z,96319.47
2023-03-27T01:55:30.839Z,96320.13
2023-03-27T01:58:03.177Z,96335.31
2023-03-27T02:00:51.689Z,96333.28
2023-03-27T02:03:22.506Z,96338.81
2023-03-27T02:05:53.062Z,96348.75
2023-03-27T02:08:24.851Z,96352.25
2023-03-27T02:10:59.550Z,96363.84
2023-03-27T02:13:30.060Z,96357.25
2023-03-27T02:16:01.605Z,96358.63
2023-03-27T02:18:32.189Z,96373.22
2023-03-27T02:20:59.797Z,96375.94
2023-03-27T02:23:30.766Z,96375.28
2023-03-27T02:26:00.226Z,96381.38
2023-03-27T02:28:36.443Z,96393.00
2023-03-27T02:31:33.750Z,96395.38
2023-03-27T02:34:14.538Z,96407.81
2023-03-27T02:36:49.449Z,96417.28
2023-03-27T02:39:21.131Z,96410.88
2023-03-27T02:41:55.965Z,96430.78
2023-03-27T02:44:51.468Z,96443.50
2023-03-27T02:47:24.570Z,96441.00
2023-03-27T02:49:55.302Z,96453.03
2023-03-27T02:52:27.575Z,96473.84
2023-03-27T02:55:04.798Z,96468.19
2023-03-27T02:57:39.445Z,96471.63
2023-03-27T03:00:27.929Z,96479.53
2023-03-27T03:03:13.659Z,96471.72
2023-03-27T03:05:41.954Z,96489.41
2023-03-27T03:08:11.766Z,96488.28
2023-03-27T03:10:44.605Z,96484.63
2023-03-27T03:13:15.300Z,96497.28
2023-03-27T03:15:43.821Z,96508.13
2023-03-27T03:18:11.482Z,96513.72
2023-03-27T03:20:39.750Z,96527.75
2023-03-27T03:23:07.606Z,96529.09
2023-03-27T03:25:35.561Z,96537.84
2023-03-27T03:28:07.982Z,96544.50
2023-03-27T03:30:41.997Z,96546.00
2023-03-27T03:33:14.167Z,96554.19
2023-03-27T03:35:43.189Z,96561.44
2023-03-27T03:38:25.132Z,96561.09
2023-03-27T03:40:54.411Z,96568.38
2023-03-27T03:43:22.868Z,96568.34
2023-03-27T03:45:52.645Z,96583.97
2023-03-27T03:48:21.170Z,96577.09
2023-03-27T03:50:50.210Z,96578.69
2023-03-27T03:53:19.378Z,96593.31
2023-03-27T03:55:47.659Z,96603.06
2023-03-27T03:58:15.504Z,96601.09
2023-03-27T04:00:44.582Z,96621.69
2023-03-27T04:03:27.420Z,96629.41
2023-03-27T04:05:55.332Z,96622.16
2023-03-27T04:08:22.935Z,96635.63
2023-03-27T04:11:05.960Z,96636.47
2023-03-27T04:13:48.488Z,96652.91
2023-03-27T04:16:28.240Z,96644.50
2023-03-27T04:18:57.140Z,96652.25
2023-03-27T04:21:27.547Z,96657.34
2023-03-27T04:24:02.172Z,96664.06
2023-03-27T04:26:43.368Z,96670.13
2023-03-27T04:29:31.838Z,96670.44
2023-03-27T04:32:00.114Z,96678.50
2023-03-27T04:34:44.183Z,96681.84
2023-03-27T04:37:30.450Z,96680.84
2023-03-27T04:40:17.884Z,96687.28
2023-03-27T04:42:46.089Z,96682.31
2023-03-27T04:45:14.944Z,96691.31
2023-03-27T04:47:45.289Z,96702.53
2023-03-27T04:50:15.295Z,96699.91
2023-03-27T04:52:44.023Z,96714.53
2023-03-27T04:55:12.528Z,96719.81
2023-03-27T04:57:46.999Z,96723.28
2023-03-27T05:00:17.026Z,96724.91
2023-03-27T05:02:48.494Z,96740.56
2023-03-27T05:05:23.273Z,96740.06
2023-03-27T05:07:52.642Z,96743.66
2023-03-27T05:10:23.633Z,96755.00
2023-03-27T05:12:55.208Z,96757.00
2023-03-27T05:15:24.398Z,96757.53
2023-03-27T05:17:54.842Z,96765.44
2023-03-27T05:20:26.891Z,96767.88
2023-03-27T05:22:55.136Z,96772.66
2023-03-27T05:25:32.446Z,96782.22
2023-03-27T05:28:02.401Z,96773.81
2023-03-27T05:30:32.854Z,96781.88
2023-03-27T05:33:17.825Z,96789.78
2023-03-27T05:35:48.635Z,96792.59
2023-03-27T05:38:17.714Z,96793.06
2023-03-27T05:40:53.100Z,96797.03
2023-03-27T05:43:22.035Z,96813.03
2023-03-27T05:45:49.587Z,96809.88
2023-03-27T05:48:17.381Z,96820.06
2023-03-27T05:50:46.923Z,96828.63
2023-03-27T05:53:20.083Z,96826.63
2023-03-27T05:56:11.375Z,96835.47
2023-03-27T05:58:49.920Z,96845.34
2023-03-27T06:01:17.466Z,96843.56
2023-03-27T06:03:48.906Z,96853.44
2023-03-27T06:06:23.429Z,96858.06
2023-03-27T06:08:59.125Z,96860.84
2023-03-27T06:11:28.303Z,96862.03
2023-03-27T06:13:58.497Z,96873.38
2023-03-27T06:16:40.153Z,96882.41
2023-03-27T06:19:26.008Z,96880.25
2023-03-27T06:21:55.594Z,96894.06
2023-03-27T06:24:23.347Z,96902.56
2023-03-27T06:26:51.373Z,96902.34
2023-03-27T06:29:20.140Z,96905.44
2023-03-27T06:31:50.959Z,96907.25
2023-03-27T06:34:29.243Z,96912.88
2023-03-27T06:37:02.687Z,96922.44
2023-03-27T06:39:36.293Z,96926.72
2023-03-27T06:42:04.019Z,96935.75
2023-03-27T06:44:32.005Z,96942.81
2023-03-27T06:47:14.026Z,96939.38
2023-03-27T06:50:00.588Z,96948.13
2023-03-27T06:52:30.429Z,96942.16
2023-03-27T06:55:14.772Z,96953.06
2023-03-27T06:57:51.193Z,96959.88
2023-03-27T07:00:24.264Z,96967.31
2023-03-27T07:03:22.698Z,96967.16
2023-03-27T07:05:50.645Z,96973.75
2023-03-27T07:08:24.891Z,96975.06
2023-03-27T07:11:10.707Z,96976.56
2023-03-27T07:13:44.105Z,96978.53
2023-03-27T07:16:21.267Z,96986.41
2023-03-27T07:18:48.988Z,96987.94
2023-03-27T07:21:16.561Z,96987.78
2023-03-27T07:23:46.263Z,96994.03
2023-03-27T07:26:17.650Z,97000.78
2023-03-27T07:28:54.921Z,97006.75
2023-03-27T07:31:33.092Z,97014.66
2023-03-27T07:34:04.988Z,97017.13
2023-03-27T07:37:08.360Z,97034.09
2023-03-27T07:39:40.409Z,97026.66
2023-03-27T07:42:08.716Z,97031.09
2023-03-27T07:44:52.734Z,97035.50
2023-03-27T07:47:20.847Z,97045.69
2023-03-27T07:49:48.504Z,97054.97
2023-03-27T07:52:21.710Z,97051.50
2023-03-27T07:54:57.744Z,97051.72
2023-03-27T07:57:37.203Z,97065.91
2023-03-27T08:00:16.956Z,97060.16
2023-03-27T08:02:45.621Z,97075.81
2023-03-27T08:05:15.170Z,97090.16
2023-03-27T08:07:47.268Z,97075.81
2023-03-27T08:10:28.918Z,97087.66
2023-03-27T08:12:59.773Z,97086.66
2023-03-27T08:15:27.448Z,97087.19
2023-03-27T08:17:56.820Z,97088.34
2023-03-27T08:20:30.303Z,97088.84
2023-03-27T08:23:00.652Z,97097.75
2023-03-27T08:25:33.147Z,97092.63
2023-03-27T08:28:03.558Z,97103.47
2023-03-27T08:30:31.848Z,97102.50
2023-03-27T08:33:00.107Z,97111.75
2023-03-27T08:35:28.351Z,97117.88
2023-03-27T08:37:55.877Z,97112.59
2023-03-27T08:40:28.105Z,97115.44
2023-03-27T08:43:27.221Z,97121.69
2023-03-27T08:45:59.103Z,97115.75
2023-03-27T08:48:31.465Z,97110.47
2023-03-27T08:51:03.625Z,97119.22
2023-03-27T08:53:35.145Z,97133.75
2023-03-27T08:56:05.238Z,97129.63
2023-03-27T08:58:42.859Z,97118.88
2023-03-27T09:01:26.413Z,97130.63
2023-03-27T09:04:02.601Z,97145.78
2023-03-27T09:06:39.704Z,97142.81
2023-03-27T09:09:11.936Z,97151.41
2023-03-27T09:11:50.017Z,97154.03
2023-03-27T09:14:28.087Z,97159.31
2023-03-27T09:16:56.810Z,97163.09
2023-03-27T09:19:47.518Z,97162.94
2023-03-27T09:22:22.413Z,97172.03
2023-03-27T09:25:07.732Z,97170.22
2023-03-27T09:27:54.210Z,97173.03
2023-03-27T09:30:34.494Z,97171.69
2023-03-27T09:33:07.994Z,97176.31
2023-03-27T09:35:38.716Z,97165.25
2023-03-27T09:38:21.904Z,97184.41
2023-03-27T09:40:53.944Z,97184.91
2023-03-27T09:43:27.445Z,97188.34
2023-03-27T09:46:02.174Z,97187.72
2023-03-27T09:48:36.368Z,97193.50
2023-03-27T09:51:37.458Z,97193.97
2023-03-27T09:54:07.382Z,97196.94
2023-03-27T09:56:40.213Z,97192.00
2023-03-27T09:59:13.297Z,97189.00
2023-03-27T10:01:47.609Z,97202.06
2023-03-27T10:04:19.783Z,97201.91
2023-03-27T10:06:59.895Z,97198.28
2023-03-27T10:09:41.006Z,97196.63
2023-03-27T10:12:12.369Z,97213.41
2023-03-27T10:14:42.544Z,97207.66
2023-03-27T10:17:23.817Z,97207.97
2023-03-27T10:20:01.156Z,97215.63
2023-03-27T10:22:30.852Z,97212.31
2023-03-27T10:24:59.899Z,97207.53
2023-03-27T10:27:36.078Z,97208.69
2023-03-27T10:30:30.682Z,97212.47
2023-03-27T10:33:32.347Z,97210.56
2023-03-27T10:36:18.623Z,97220.31
2023-03-27T10:38:56.385Z,97236.38
2023-03-27T10:41:34.707Z,97245.16
2023-03-27T10:44:06.992Z,97246.28
2023-03-27T10:46:39.484Z,97241.34
2023-03-27T10:49:19.956Z,97229.97
2023-03-27T10:51:52.605Z,97237.09
2023-03-27T10:54:35.398Z,97231.78
2023-03-27T10:57:06.056Z,97236.03
2023-03-27T10:59:42.233Z,97234.66
2023-03-27T11:02:23.313Z,97263.63
2023-03-27T11:04:56.795Z,97253.59
2023-03-27T11:07:33.550Z,97269.63
2023-03-27T11:10:05.828Z,97275.31
2023-03-27T11:12:37.058Z,97273.19
2023-03-27T11:15:09.106Z,97273.66
2023-03-27T11:17:42.158Z,97268.38
2023-03-27T11:20:25.727Z,97273.41
2023-03-27T11:23:14.964Z,97261.44
2023-03-27T11:26:06.032Z,97265.72
2023-03-27T11:28:39.733Z,97264.47
2023-03-27T11:31:14.321Z,97260.03
2023-03-27T11:33:48.792Z,97249.34
2023-03-27T11:36:29.625Z,97263.78
2023-03-27T11:39:15.663Z,97262.59
2023-03-27T11:41:51.839Z,97274.44
2023-03-27T11:44:20.502Z,97288.53
2023-03-27T11:47:23.342Z,97293.22
2023-03-27T11:50:25.459Z,97295.41
2023-03-27T11:53:11.560Z,97292.56
2023-03-27T11:56:16.742Z,97283.91
2023-03-27T11:59:05.966Z,97286.81
2023-03-27T12:01:37.552Z,97278.13
2023-03-27T12:04:13.673Z,97283.81
2023-03-27T12:07:12.346Z,97276.63
2023-03-27T12:09:57.044Z,97303.25
2023-03-27T12:12:52.047Z,97302.03
2023-03-27T12:15:35.854Z,97297.81
2023-03-27T12:18:10.842Z,97305.09
2023-03-27T12:20:53.318Z,97305.81
2023-03-27T12:23:31.206Z,97286.75
2023-03-27T12:26:33.109Z,97289.59
2023-03-27T12:29:23.203Z,97286.25
2023-03-27T12:32:08.882Z,97298.03
2023-03-27T12:34:50.118Z,97268.03
2023-03-27T12:37:19.717Z,97302.25
2023-03-27T12:39:51.898Z,97313.16
2023-03-27T12:42:51.681Z,97288.69
2023-03-27T12:45:23.517Z,97299.97
2023-03-27T12:48:21.239Z,97302.66
2023-03-27T12:50:58.332Z,97307.13
2023-03-27T12:53:47.688Z,97304.81
2023-03-27T12:56:37.156Z,97312.59
2023-03-27T12:59:20.427Z,97314.03
2023-03-27T13:02:05.206Z,97324.47
2023-03-27T13:05:24.050Z,97328.22
2023-03-27T13:08:07.008Z,97327.84
2023-03-27T13:10:59.233Z,97326.03
2023-03-27T13:14:09.588Z,97336.03
2023-03-27T13:16:49.917Z,97325.09
2023-03-27T13:19:30.496Z,97330.06
2023-03-27T13:22:29.031Z,97331.72
2023-03-27T13:25:21.746Z,97315.69
2023-03-27T13:28:09.293Z,97321.97
2023-03-27T13:30:50.587Z,97323.28
2023-03-27T13:33:47.464Z,97322.97
2023-03-27T13:36:29.792Z,97314.38
2023-03-27T13:39:18.355Z,97316.69
2023-03-27T13:42:08.119Z,97321.28
2023-03-27T13:45:00.244Z,97337.28
2023-03-27T13:48:13.898Z,97317.66
2023-03-27T13:51:09.413Z,97331.47
2023-03-27T13:53:47.115Z,97334.06
2023-03-27T13:56:44.886Z,97329.56
2023-03-27T14:00:06.272Z,97328.31
2023-03-27T14:03:17.694Z,97325.56
2023-03-27T14:06:17.122Z,97312.25
2023-03-27T14:08:48.683Z,97316.28
2023-03-27T14:11:45.237Z,97329.00
2023-03-27T14:14:38.025Z,97339.16
2023-03-27T14:17:34.502Z,97338.28
2023-03-27T14:20:15.081Z,97352.16
2023-03-27T14:22:50.197Z,97345.22
2023-03-27T14:25:24.377Z,97346.53
2023-03-27T14:27:58.255Z,97334.56
2023-03-27T14:30:28.192Z,97343.41
2023-03-27T14:33:12.393Z,97340.69
2023-03-27T14:35:42.404Z,97337.81
2023-03-27T14:38:22.556Z,97331.22
2023-03-27T14:40:52.319Z,97342.00
2023-03-27T14:43:30.661Z,97343.88
2023-03-27T14:46:01.297Z,97333.97
2023-03-27T14:48:31.881Z,97338.28
2023-03-27T14:51:02.801Z,97353.28
2023-03-27T14:53:44.459Z,97360.72
2023-03-27T14:56:30.317Z,97389.72
2023-03-27T14:59:05.232Z,97410.19
2023-03-27T15:01:45.633Z,97417.72
2023-03-27T15:04:14.446Z,97427.00
2023-03-27T15:06:43.982Z,97430.41
2023-03-27T15:09:19.980Z,97439.25
2023-03-27T15:12:11.620Z,97449.41
2023-03-27T15:14:40.983Z,97457.50
2023-03-27T15:17:12.127Z,97461.47
2023-03-27T15:19:45.564Z,97451.41
2023-03-27T15:22:18.084Z,97450.56
2023-03-27T15:24:51.106Z,97449.50
2023-03-27T15:27:21.435Z,97443.16
2023-03-27T15:29:51.348Z,97454.13
2023-03-27T15:32:22.049Z,97447.22
2023-03-27T15:34:55.686Z,97439.88
2023-03-27T15:37:25.446Z,97435.50
2023-03-27T15:40:07.075Z,97444.03
2023-03-27T15:42:46.249Z,97446.69
2023-03-27T15:45:16.902Z,97459.03
2023-03-27T15:47:45.441Z,97466.38
2023-03-27T15:50:19.715Z,97475.19
2023-03-27T15:52:51.686Z,97479.22
2023-03-27T15:55:38.803Z,97487.72
2023-03-27T15:58:20.624Z,97505.63
2023-03-27T16:00:49.125Z,97524.03
2023-03-27T16:03:21.130Z,97546.78
2023-03-27T16:05:49.847Z,97544.91
2023-03-27T16:08:28.794Z,97552.78
2023-03-27T16:10:58.417Z,97542.13
2023-03-27T16:13:29.230Z,97524.78
2023-03-27T16:15:58.726Z,97508.59
2023-03-27T16:18:31.192Z,97517.81
2023-03-27T16:21:06.923Z,97515.88
2023-03-27T16:23:34.514Z,97522.78
2023-03-27T16:26:04.225Z,97516.94
2023-03-27T16:28:32.146Z,97521.38
2023-03-27T16:30:59.765Z,97513.50
2023-03-27T16:33:28.667Z,97523.16
2023-03-27T16:35:57.209Z,97537.56
2023-03-27T16:38:25.556Z,97539.81
2023-03-27T16:40:53.096Z,97544.00
2023-03-27T16:43:21.936Z,97547.34
2023-03-27T16:45:49.553Z,97550.22
2023-03-27T16:48:17.579Z,97549.28
2023-03-27T16:50:45.136Z,97553.53
2023-03-27T16:53:12.635Z,97554.13
2023-03-27T16:55:40.380Z,97564.88
2023-03-27T16:58:08.879Z,97568.63
2023-03-27T17:00:37.933Z,97577.06
2023-03-27T17:03:05.959Z,97574.00
2023-03-27T17:05:34.435Z,97580.41
2023-03-27T17:08:02.286Z,97583.81
2023-03-27T17:10:31.320Z,97585.97
2023-03-27T17:12:58.856Z,97578.91
2023-03-27T17:15:26.326Z,97583.03
2023-03-27T17:17:55.283Z,97590.06
2023-03-27T17:20:22.942Z,97594.66
2023-03-27T17:22:51.942Z,97598.75
2023-03-27T17:25:19.498Z,97598.19
2023-03-27T17:27:47.472Z,97596.72
2023-03-27T17:30:21.450Z,97603.22
2023-03-27T17:32:57.151Z,97603.28
2023-03-27T17:35:24.764Z,97607.47
2023-03-27T17:37:52.254Z,97613.28
2023-03-27T17:40:19.978Z,97613.84
2023-03-27T17:42:47.525Z,97618.69
2023-03-27T17:45:19.336Z,97621.44
2023-03-27T17:47:46.922Z,97622.47
2023-03-27T17:50:16.095Z,97630.78
2023-03-27T17:52:43.790Z,97626.88
2023-03-27T17:55:11.547Z,97625.94
2023-03-27T17:57:39.375Z,97626.75
2023-03-27T18:00:09.779Z,97632.69
2023-03-27T18:02:39.997Z,97635.84
2023-03-27T18:05:09.073Z,97639.81
2023-03-27T18:07:37.974Z,97637.38
2023-03-27T18:10:06.748Z,97649.03
2023-03-27T18:12:34.336Z,97640.59
2023-03-27T18:15:01.902Z,97641.28
2023-03-27T18:17:29.574Z,97652.50
2023-03-27T18:19:57.204Z,97649.31
2023-03-27T18:22:24.802Z,97650.44
2023-03-27T18:24:53.792Z,97652.94
2023-03-27T18:27:21.495Z,97657.91
2023-03-27T18:29:49.347Z,97666.66
2023-03-27T18:32:16.847Z,97664.59
2023-03-27T18:34:44.621Z,97672.22
2023-03-27T18:37:12.292Z,97677.03
2023-03-27T18:39:39.928Z,97666.50
2023-03-27T18:42:09.503Z,97673.59
2023-03-27T18:44:39.009Z,97681.50
2023-03-27T18:47:08.426Z,97681.75
2023-03-27T18:49:36.713Z,97681.22
2023-03-27T18:52:04.570Z,97685.22
2023-03-27T18:54:32.171Z,97693.41
2023-03-27T18:56:59.765Z,97691.16
2023-03-27T18:59:28.898Z,97683.53
2023-03-27T19:01:56.446Z,97684.69
2023-03-27T19:04:24.855Z,97691.44
2023-03-27T19:06:53.276Z,97705.47
2023-03-27T19:09:25.565Z,97697.19
2023-03-27T19:12:01.838Z,97689.03
2023-03-27T19:14:49.396Z,97690.00
2023-03-27T19:17:36.633Z,97689.03
2023-03-27T19:20:23.097Z,97690.69
2023-03-27T19:23:09.495Z,97694.97
2023-03-27T19:25:41.509Z,97693.56
2023-03-27T19:28:09.050Z,97702.03
2023-03-27T19:30:37.919Z,97708.69
2023-03-27T19:33:06.182Z,97709.69
2023-03-27T19:35:33.847Z,97714.25
2023-03-27T19:38:01.488Z,97715.84
2023-03-27T19:40:28.981Z,97719.75
2023-03-27T19:42:56.870Z,97719.47
2023-03-27T19:45:24.702Z,97719.72
2023-03-27T19:47:53.668Z,97719.69
2023-03-27T19:50:22.702Z,97723.28
2023-03-27T19:53:10.503Z,97718.88
2023-03-27T19:55:38.540Z,97719.81
2023-03-27T19:58:06.061Z,97721.78
2023-03-27T20:00:38.246Z,97722.84
2023-03-27T20:03:10.035Z,97728.41
2023-03-27T20:05:41.376Z,97718.47
2023-03-27T20:08:08.911Z,97719.53
2023-03-27T20:10:36.430Z,97720.13
2023-03-27T20:13:04.862Z,97718.44
2023-03-27T20:15:34.092Z,97731.38
2023-03-27T20:18:02.567Z,97722.31
2023-03-27T20:20:31.555Z,97717.66
2023-03-27T20:23:02.639Z,97715.88
2023-03-27T20:25:33.651Z,97715.38
2023-03-27T20:28:01.799Z,97726.09
2023-03-27T20:30:29.659Z,97715.38
2023-03-27T20:32:58.063Z,97717.84
2023-03-27T20:35:25.598Z,97715.22
2023-03-27T20:37:57.660Z,97723.59
2023-03-27T20:40:26.354Z,97724.78
2023-03-27T20:43:02.823Z,97714.63
2023-03-27T20:45:30.796Z,97716.78
2023-03-27T20:48:03.416Z,97722.53
2023-03-27T20:50:31.660Z,97717.81
2023-03-27T20:53:00.545Z,97725.69
2023-03-27T20:55:34.598Z,97719.53
2023-03-27T20:58:06.246Z,97712.06
2023-03-27T21:00:33.798Z,97716.53
2023-03-27T21:03:01.398Z,97713.09
2023-03-27T21:05:30.624Z,97713.78
2023-03-27T21:07:59.869Z,97710.59
2023-03-27T21:10:28.676Z,97726.41
2023-03-27T21:12:57.476Z,97727.28
2023-03-27T21:15:25.221Z,97715.38
2023-03-27T21:17:52.837Z,97717.75
2023-03-27T21:20:20.714Z,97715.72
2023-03-27T21:22:52.593Z,97722.63
2023-03-27T21:25:20.827Z,97723.59
2023-03-27T21:27:53.458Z,97717.63
2023-03-27T21:30:21.546Z,97724.53
2023-03-27T21:32:50.619Z,97725.34
2023-03-27T21:35:18.564Z,97726.69
2023-03-27T21:37:46.247Z,97720.75
2023-03-27T21:40:14.035Z,97731.13
2023-03-27T21:42:41.545Z,97725.16
2023-03-27T21:45:10.867Z,97733.63
2023-03-27T21:47:47.132Z,97735.53
2023-03-27T21:50:15.943Z,97732.50
2023-03-27T21:52:43.490Z,97733.59
2023-03-27T21:55:11.043Z,97735.63
2023-03-27T21:57:38.546Z,97733.59
2023-03-27T22:00:08.145Z,97734.59
2023-03-27T22:02:42.086Z,97733.22
2023-03-27T22:05:10.032Z,97740.69
2023-03-27T22:07:37.648Z,97736.25
2023-03-27T22:10:06.388Z,97735.84
2023-03-27T22:12:35.596Z,97737.91
2023-03-27T22:15:03.130Z,97735.03
2023-03-27T22:17:30.862Z,97738.47
2023-03-27T22:20:00.184Z,97735.28
2023-03-27T22:22:27.675Z,97740.34
2023-03-27T22:24:55.258Z,97745.47
2023-03-27T22:27:22.813Z,97748.25
2023-03-27T22:29:50.287Z,97747.47
2023-03-27T22:32:17.824Z,97748.59
2023-03-27T22:34:45.437Z,97755.69
2023-03-27T22:37:14.936Z,97757.81
2023-03-27T22:39:42.485Z,97755.34
2023-03-27T22:42:10.231Z,97756.34
2023-03-27T22:44:37.803Z,97767.00
2023-03-27T22:47:05.429Z,97759.69
2023-03-27T22:49:32.971Z,97765.50
2023-03-27T22:52:00.458Z,97773.91
2023-03-27T22:54:29.397Z,97767.00
2023-03-27T22:56:58.828Z,97771.16
2023-03-27T22:59:26.361Z,97774.75
2023-03-27T23:01:54.866Z,97768.41
2023-03-27T23:04:22.414Z,97768.56
2023-03-27T23:06:50.304Z,97767.16
2023-03-27T23:09:18.412Z,97761.56
2023-03-27T23:11:47.958Z,97774.50
2023-03-27T23:14:15.461Z,97772.41
2023-03-27T23:16:42.937Z,97781.09
2023-03-27T23:19:10.494Z,97786.50
2023-03-27T23:21:37.991Z,97786.94
2023-03-27T23:24:06.430Z,97798.16
2023-03-27T23:26:33.919Z,97788.31
2023-03-27T23:29:02.805Z,97796.50
2023-03-27T23:31:30.370Z,97793.16
2023-03-27T23:33:57.983Z,97799.03
2023-03-27T23:36:26.021Z,97789.25
2023-03-27T23:38:54.199Z,97796.31
2023-03-27T23:41:22.273Z,97794.59
2023-03-27T23:43:50.469Z,97805.41
2023-03-27T23:46:19.342Z,97799.78
2023-03-27T23:48:46.942Z,97803.25
2023-03-27T23:51:16.198Z,97806.13
2023-03-27T23:53:43.707Z,97813.59
2023-03-27T23:56:11.711Z,97805.34
2023-03-27T23:58:39.240Z,97806.88
